createdAt,value
2022-08-11T00:00:00.011Z,2.40
2022-08-11T00:05:06.164Z,1.70
2022-08-11T00:10:12.374Z,1.60
2022-08-11T00:15:14.609Z,2.00
2022-08-11T00:20:17.462Z,2.03
2022-08-11T00:25:21.608Z,2.42
2022-08-11T00:30:23.728Z,2.30
2022-08-11T00:35:54.809Z,1.88
2022-08-11T00:41:19.290Z,2.40
2022-08-11T00:46:33.660Z,2.22
2022-08-11T00:52:03.887Z,2.03
2022-08-11T00:57:36.927Z,2.00
2022-08-11T01:02:39.868Z,2.22
2022-08-11T01:08:15.614Z,2.33
2022-08-11T01:13:48.457Z,2.35
2022-08-11T01:19:17.838Z,2.10
2022-08-11T01:25:08.231Z,2.35
2022-08-11T01:35:31.169Z,2.53
2022-08-11T01:41:00.556Z,2.53
2022-08-11T01:46:17.384Z,2.20
2022-08-11T01:51:51.278Z,2.92
2022-08-11T01:57:01.902Z,2.40
2022-08-11T02:02:47.661Z,2.50
2022-08-11T02:08:18.660Z,2.50
2022-08-11T02:13:36.491Z,2.35
2022-08-11T02:19:00.879Z,2.22
2022-08-11T02:24:14.930Z,2.20
2022-08-11T02:29:39.428Z,2.95
2022-08-11T02:35:00.661Z,2.42
2022-08-11T02:40:22.657Z,2.10
2022-08-11T02:45:54.782Z,2.75
2022-08-11T02:51:30.278Z,2.33
2022-08-11T02:56:38.460Z,2.50
2022-08-11T03:01:53.210Z,3.00
2022-08-11T03:07:28.275Z,2.55
2022-08-11T03:13:00.753Z,2.35
2022-08-11T03:18:36.556Z,2.55
2022-08-11T03:23:59.260Z,2.60
2022-08-11T03:29:24.934Z,3.20
2022-08-11T03:34:30.164Z,2.80
2022-08-11T03:39:37.879Z,2.70
2022-08-11T03:45:23.963Z,2.45
2022-08-11T03:50:43.785Z,3.22
2022-08-11T03:56:13.626Z,2.92
2022-08-11T04:07:01.550Z,2.88
2022-08-11T04:12:37.024Z,2.80
2022-08-11T04:18:16.240Z,2.60
2022-08-11T04:24:34.893Z,2.50
2022-08-11T04:29:14.496Z,2.40
2022-08-11T04:34:28.273Z,2.67
2022-08-11T04:40:02.437Z,2.50
2022-08-11T04:45:26.046Z,2.30
2022-08-11T04:51:28.096Z,2.45
2022-08-11T04:56:52.260Z,2.65
2022-08-11T05:02:17.389Z,2.97
2022-08-11T05:07:31.595Z,2.38
2022-08-11T05:12:49.161Z,2.45
2022-08-11T05:18:15.344Z,2.60
2022-08-11T05:23:39.765Z,2.35
2022-08-11T05:29:19.341Z,2.30
2022-08-11T05:34:54.139Z,2.25
2022-08-11T05:40:23.925Z,2.17
2022-08-11T05:46:02.348Z,1.77
2022-08-11T05:51:30.259Z,1.63
2022-08-11T05:56:34.903Z,1.95
2022-08-11T06:01:36.870Z,1.75
2022-08-11T06:06:45.541Z,2.05
2022-08-11T06:11:48.918Z,1.80
2022-08-11T06:16:56.111Z,1.70
2022-08-11T06:21:59.779Z,2.15
2022-08-11T06:27:18.650Z,1.77
2022-08-11T06:32:25.396Z,2.50
2022-08-11T06:37:43.500Z,1.65
2022-08-11T06:42:58.664Z,2.20
2022-08-11T06:48:01.932Z,1.92
2022-08-11T06:53:10.628Z,2.40
2022-08-11T06:58:37.497Z,1.83
2022-08-11T07:03:45.533Z,3.50
2022-08-11T07:09:18.005Z,1.80
2022-08-11T07:14:43.547Z,1.83
2022-08-11T07:20:10.218Z,2.05
2022-08-11T07:25:34.308Z,1.58
2022-08-11T07:30:41.585Z,1.80
2022-08-11T07:35:48.526Z,1.85
2022-08-11T07:40:51.469Z,1.70
2022-08-11T07:46:11.871Z,2.03
2022-08-11T07:51:37.982Z,1.98
2022-08-11T07:56:55.234Z,1.80
2022-08-11T08:02:20.565Z,2.30
2022-08-11T08:07:41.789Z,1.75
2022-08-11T08:13:02.834Z,2.25
2022-08-11T08:18:09.669Z,1.70
2022-08-11T08:23:34.482Z,1.63
2022-08-11T08:28:36.661Z,1.30
2022-08-11T08:33:41.782Z,1.30
2022-08-11T08:38:54.039Z,1.60
2022-08-11T08:44:34.729Z,1.52
2022-08-11T08:49:33.300Z,1.20
2022-08-11T08:54:38.134Z,1.60
2022-08-11T08:59:49.264Z,1.55
2022-08-11T09:04:51.864Z,1.23
2022-08-11T09:09:58.172Z,1.63
2022-08-11T09:15:05.998Z,1.88
2022-08-11T09:20:17.463Z,1.25
2022-08-11T09:25:40.147Z,1.00
2022-08-11T09:30:44.465Z,0.90
2022-08-11T09:35:48.825Z,1.02
2022-08-11T09:40:52.788Z,1.10
2022-08-11T09:45:59.694Z,1.30
2022-08-11T09:51:02.691Z,1.30
2022-08-11T09:56:25.717Z,1.20
2022-08-11T10:01:32.055Z,1.20
2022-08-11T10:06:55.800Z,1.23
2022-08-11T10:11:59.849Z,1.10
2022-08-11T10:17:06.222Z,0.85
2022-08-11T10:22:27.917Z,0.80
2022-08-11T10:28:16.714Z,0.93
2022-08-11T10:33:36.575Z,1.00
2022-08-11T10:38:39.128Z,0.90
2022-08-11T10:44:02.786Z,1.00
2022-08-11T10:49:03.871Z,1.02
2022-08-11T10:54:24.522Z,0.90
2022-08-11T10:59:29.982Z,0.98
2022-08-11T11:04:52.299Z,0.85
2022-08-11T11:09:58.546Z,1.10
2022-08-11T11:15:22.194Z,0.82
2022-08-11T11:20:34.531Z,0.98
2022-08-11T11:26:10.399Z,0.90
2022-08-11T11:31:42.832Z,0.73
2022-08-11T11:36:48.882Z,0.70
2022-08-11T11:41:53.354Z,1.10
2022-08-11T11:46:56.714Z,1.20
2022-08-11T11:52:00.717Z,0.75
2022-08-11T11:57:23.065Z,1.05
2022-08-11T12:02:24.829Z,0.90
2022-08-11T12:07:45.502Z,1.05
2022-08-11T12:13:20.527Z,1.00
2022-08-11T12:18:22.426Z,0.93
2022-08-11T12:23:42.853Z,0.80
2022-08-11T12:28:45.650Z,0.63
2022-08-11T12:33:47.418Z,0.75
2022-08-11T12:38:51.772Z,0.90
2022-08-11T12:44:12.282Z,0.70
2022-08-11T12:49:36.477Z,0.65
2022-08-11T12:54:43.948Z,0.70
2022-08-11T13:00:05.298Z,0.73
2022-08-11T13:05:09.052Z,0.77
2022-08-11T13:10:16.988Z,0.90
2022-08-11T13:15:24.064Z,0.73
2022-08-11T13:20:26.825Z,1.00
2022-08-11T13:25:31.713Z,0.77
2022-08-11T13:30:52.150Z,0.90
2022-08-11T13:35:55.858Z,1.65
2022-08-11T13:40:58.278Z,0.93
2022-08-11T13:46:18.528Z,0.88
2022-08-11T13:51:36.257Z,1.00
2022-08-11T13:56:42.331Z,0.70
2022-08-11T14:02:20.888Z,1.40
2022-08-11T14:07:14.709Z,1.10
2022-08-11T14:12:43.203Z,0.90
2022-08-11T14:17:49.298Z,0.90
2022-08-11T14:22:52.381Z,1.00
2022-08-11T14:28:30.645Z,1.02
2022-08-11T14:33:20.271Z,1.83
2022-08-11T14:38:23.330Z,1.10
2022-08-11T14:44:12.387Z,1.20
2022-08-11T14:49:06.836Z,0.82
2022-08-11T14:54:28.813Z,0.90
2022-08-11T14:59:30.864Z,1.20
2022-08-11T15:04:35.983Z,1.20
2022-08-11T15:10:09.862Z,1.33
2022-08-11T15:15:25.590Z,1.80
2022-08-11T15:20:47.067Z,2.05
2022-08-11T15:25:55.431Z,2.28
2022-08-11T15:31:17.922Z,1.27
2022-08-11T15:36:39.734Z,1.83
2022-08-11T15:42:09.392Z,1.10
2022-08-11T15:47:14.329Z,1.30
2022-08-11T15:52:23.311Z,1.17
2022-08-11T16:02:54.929Z,1.30
2022-08-11T16:07:57.232Z,2.25
2022-08-11T16:13:06.085Z,2.70
2022-08-11T16:18:09.154Z,1.17
2022-08-11T16:23:14.312Z,1.63
2022-08-11T16:28:18.846Z,1.30
2022-08-11T16:33:22.678Z,1.40
2022-08-11T16:38:43.825Z,1.15
2022-08-11T16:44:06.664Z,1.23
2022-08-11T16:49:24.972Z,1.20
2022-08-11T16:54:28.004Z,1.33
2022-08-11T16:59:32.133Z,1.10
2022-08-11T17:05:13.326Z,1.00
2022-08-11T17:10:52.732Z,1.48
2022-08-11T17:16:07.145Z,0.93
2022-08-11T17:21:14.314Z,1.00
2022-08-11T17:26:51.839Z,1.00
2022-08-11T17:32:13.978Z,1.33
2022-08-11T17:37:15.811Z,1.10
2022-08-11T17:42:36.945Z,1.20
2022-08-11T17:47:58.685Z,1.10
2022-08-11T17:53:20.179Z,1.30
2022-08-11T17:58:41.857Z,0.70
2022-08-11T18:03:53.032Z,1.27
2022-08-11T18:09:18.774Z,0.95
2022-08-11T18:14:42.430Z,1.20
2022-08-11T18:20:03.150Z,0.85
2022-08-11T18:25:29.376Z,1.38
2022-08-11T18:31:03.885Z,1.17
2022-08-11T18:36:29.258Z,1.08
2022-08-11T18:41:53.929Z,1.98
2022-08-11T18:47:15.723Z,1.73
2022-08-11T18:52:38.466Z,1.95
2022-08-11T18:58:00.701Z,1.55
2022-08-11T19:03:23.696Z,1.42
2022-08-11T19:08:50.149Z,1.30
2022-08-11T19:14:12.703Z,1.52
2022-08-11T19:19:34.461Z,2.15
2022-08-11T19:24:57.617Z,1.70
2022-08-11T19:30:19.609Z,1.60
2022-08-11T19:35:40.311Z,1.30
2022-08-11T19:41:01.333Z,0.95
2022-08-11T19:46:23.670Z,1.20
2022-08-11T19:51:45.468Z,1.45
2022-08-11T19:57:07.856Z,1.02
2022-08-11T20:02:28.472Z,1.20
2022-08-11T20:07:50.258Z,1.17
2022-08-11T20:13:12.705Z,1.00
2022-08-11T20:18:43.095Z,1.10
2022-08-11T20:24:06.405Z,1.50
2022-08-11T20:29:28.069Z,1.30
2022-08-11T20:34:50.687Z,0.88
2022-08-11T20:40:14.857Z,0.90
2022-08-11T20:45:36.077Z,1.33
2022-08-11T20:51:16.649Z,1.33
2022-08-11T20:56:39.369Z,0.95
2022-08-11T21:02:03.065Z,0.98
2022-08-11T21:07:28.528Z,0.77
2022-08-11T21:12:50.795Z,1.08
2022-08-11T21:18:28.516Z,0.77
2022-08-11T21:23:52.446Z,1.33
2022-08-11T21:29:16.805Z,0.90
2022-08-11T21:34:40.052Z,0.90
2022-08-11T21:40:01.883Z,1.10
2022-08-11T21:45:25.418Z,0.68
2022-08-11T21:50:45.675Z,1.20
2022-08-11T21:56:07.882Z,0.98
2022-08-11T22:01:29.180Z,1.00
2022-08-11T22:06:56.586Z,1.02
2022-08-11T22:12:34.410Z,1.00
2022-08-11T22:17:58.006Z,1.15
2022-08-11T22:23:20.255Z,1.08
2022-08-11T22:28:42.249Z,0.90
2022-08-11T22:34:03.424Z,0.90
2022-08-11T22:39:27.253Z,1.00
2022-08-11T22:44:47.614Z,0.90
2022-08-11T22:50:14.142Z,1.10
2022-08-11T22:55:34.809Z,1.10
2022-08-11T23:00:55.766Z,0.90
2022-08-11T23:06:17.645Z,0.80
2022-08-11T23:12:05.931Z,0.98
2022-08-11T23:17:18.789Z,0.90
2022-08-11T23:22:49.259Z,1.10
2022-08-11T23:28:11.769Z,0.80
2022-08-11T23:33:35.779Z,1.10
2022-08-11T23:38:55.961Z,0.90
2022-08-11T23:44:17.481Z,1.00
2022-08-11T23:49:38.218Z,0.90
2022-08-11T23:54:59.161Z,0.93
